sensor_id;sensor_type;location;lat;lon;timestamp;temperature;humidity
68485;DHT22;55472;50.060;21.960;2024-03-06T00:02:12;5.90;99.90
68485;DHT22;55472;50.060;21.960;2024-03-06T00:04:38;5.90;99.90
68485;DHT22;55472;50.060;21.960;2024-03-06T00:07:04;5.90;99.90
68485;DHT22;55472;50.060;21.960;2024-03-06T00:09:31;5.90;99.90
68485;DHT22;55472;50.060;21.960;2024-03-06T00:11:57;5.90;99.90
68485;DHT22;55472;50.060;21.960;2024-03-06T00:14:24;5.90;99.90
68485;DHT22;55472;50.060;21.960;2024-03-06T00:16:50;5.90;99.90
68485;DHT22;55472;50.060;21.960;2024-03-06T00:19:17;5.90;99.90
68485;DHT22;55472;50.060;21.960;2024-03-06T00:21:44;5.90;99.90
68485;DHT22;55472;50.060;21.960;2024-03-06T00:24:14;5.90;99.90
68485;DHT22;55472;50.060;21.960;2024-03-06T00:26:49;5.90;99.90
68485;DHT22;55472;50.060;21.960;2024-03-06T00:29:15;5.90;99.90
68485;DHT22;55472;50.060;21.960;2024-03-06T00:31:45;5.90;99.90
68485;DHT22;55472;50.060;21.960;2024-03-06T00:34:12;5.90;99.90
68485;DHT22;55472;50.060;21.960;2024-03-06T00:36:40;5.90;99.90
68485;DHT22;55472;50.060;21.960;2024-03-06T00:39:06;5.90;99.90
68485;DHT22;55472;50.060;21.960;2024-03-06T00:41:36;5.90;99.90
68485;DHT22;55472;50.060;21.960;2024-03-06T00:44:03;5.90;99.90
68485;DHT22;55472;50.060;21.960;2024-03-06T00:46:29;5.90;99.90
68485;DHT22;55472;50.060;21.960;2024-03-06T00:48:55;5.90;99.90
68485;DHT22;55472;50.060;21.960;2024-03-06T00:51:22;5.90;99.90
68485;DHT22;55472;50.060;21.960;2024-03-06T00:53:48;5.90;99.90
68485;DHT22;55472;50.060;21.960;2024-03-06T00:56:15;5.90;99.90
68485;DHT22;55472;50.060;21.960;2024-03-06T00:58:41;5.90;99.90
68485;DHT22;55472;50.060;21.960;2024-03-06T01:01:07;5.90;99.90
68485;DHT22;55472;50.060;21.960;2024-03-06T01:03:33;5.90;99.90
68485;DHT22;55472;50.060;21.960;2024-03-06T01:05:59;5.90;99.90
68485;DHT22;55472;50.060;21.960;2024-03-06T01:08:25;5.90;99.90
68485;DHT22;55472;50.060;21.960;2024-03-06T01:10:52;5.90;99.90
68485;DHT22;55472;50.060;21.960;2024-03-06T01:13:21;5.90;99.90
68485;DHT22;55472;50.060;21.960;2024-03-06T01:15:48;5.80;99.90
68485;DHT22;55472;50.060;21.960;2024-03-06T01:18:14;5.80;99.90
68485;DHT22;55472;50.060;21.960;2024-03-06T01:20:40;5.80;99.90
68485;DHT22;55472;50.060;21.960;2024-03-06T01:23:06;5.80;99.90
68485;DHT22;55472;50.060;21.960;2024-03-06T01:25:32;5.80;99.90
68485;DHT22;55472;50.060;21.960;2024-03-06T01:27:58;5.80;99.90
68485;DHT22;55472;50.060;21.960;2024-03-06T01:30:25;5.80;99.90
68485;DHT22;55472;50.060;21.960;2024-03-06T01:32:51;5.80;99.90
68485;DHT22;55472;50.060;21.960;2024-03-06T01:35:18;5.80;99.90
68485;DHT22;55472;50.060;21.960;2024-03-06T01:37:44;5.80;99.90
68485;DHT22;55472;50.060;21.960;2024-03-06T01:40:10;5.70;99.90
68485;DHT22;55472;50.060;21.960;2024-03-06T01:42:38;5.80;99.90
68485;DHT22;55472;50.060;21.960;2024-03-06T01:45:04;5.70;99.90
68485;DHT22;55472;50.060;21.960;2024-03-06T01:47:31;5.70;99.90
68485;DHT22;55472;50.060;21.960;2024-03-06T01:49:57;5.70;99.90
68485;DHT22;55472;50.060;21.960;2024-03-06T01:52:24;5.70;99.90
68485;DHT22;55472;50.060;21.960;2024-03-06T01:54:50;5.70;99.90
68485;DHT22;55472;50.060;21.960;2024-03-06T01:57:17;5.70;99.90
68485;DHT22;55472;50.060;21.960;2024-03-06T01:59:45;5.70;99.90
68485;DHT22;55472;50.060;21.960;2024-03-06T02:02:11;5.70;99.90
68485;DHT22;55472;50.060;21.960;2024-03-06T02:04:38;5.70;99.90
68485;DHT22;55472;50.060;21.960;2024-03-06T02:07:08;5.70;99.90
68485;DHT22;55472;50.060;21.960;2024-03-06T02:09:39;5.70;99.90
68485;DHT22;55472;50.060;21.960;2024-03-06T02:12:06;5.70;99.90
68485;DHT22;55472;50.060;21.960;2024-03-06T02:14:36;5.70;99.90
68485;DHT22;55472;50.060;21.960;2024-03-06T02:17:02;5.70;99.90
68485;DHT22;55472;50.060;21.960;2024-03-06T02:19:41;5.70;99.90
68485;DHT22;55472;50.060;21.960;2024-03-06T02:22:09;5.60;99.90
68485;DHT22;55472;50.060;21.960;2024-03-06T02:24:37;5.60;99.90
68485;DHT22;55472;50.060;21.960;2024-03-06T02:27:08;5.60;99.90
68485;DHT22;55472;50.060;21.960;2024-03-06T02:29:34;5.60;99.90
68485;DHT22;55472;50.060;21.960;2024-03-06T02:32:01;5.60;99.90
68485;DHT22;55472;50.060;21.960;2024-03-06T02:34:30;5.60;99.90
68485;DHT22;55472;50.060;21.960;2024-03-06T02:36:56;5.60;99.90
68485;DHT22;55472;50.060;21.960;2024-03-06T02:39:23;5.60;99.90
68485;DHT22;55472;50.060;21.960;2024-03-06T02:41:49;5.60;99.90
68485;DHT22;55472;50.060;21.960;2024-03-06T02:44:15;5.60;99.90
68485;DHT22;55472;50.060;21.960;2024-03-06T02:46:50;5.60;99.90
68485;DHT22;55472;50.060;21.960;2024-03-06T02:49:16;5.60;99.90
68485;DHT22;55472;50.060;21.960;2024-03-06T02:51:43;5.60;99.90
68485;DHT22;55472;50.060;21.960;2024-03-06T02:54:09;5.50;99.90
68485;DHT22;55472;50.060;21.960;2024-03-06T02:56:35;5.50;99.90
68485;DHT22;55472;50.060;21.960;2024-03-06T02:59:02;5.50;99.90
68485;DHT22;55472;50.060;21.960;2024-03-06T03:01:29;5.50;99.90
68485;DHT22;55472;50.060;21.960;2024-03-06T03:03:57;5.50;99.90
68485;DHT22;55472;50.060;21.960;2024-03-06T03:06:23;5.50;99.90
68485;DHT22;55472;50.060;21.960;2024-03-06T03:08:52;5.50;99.90
68485;DHT22;55472;50.060;21.960;2024-03-06T03:11:18;5.50;99.90
68485;DHT22;55472;50.060;21.960;2024-03-06T03:13:45;5.40;99.90
68485;DHT22;55472;50.060;21.960;2024-03-06T03:16:20;5.40;99.90
68485;DHT22;55472;50.060;21.960;2024-03-06T03:18:46;5.40;99.90
68485;DHT22;55472;50.060;21.960;2024-03-06T03:21:14;5.40;99.90
68485;DHT22;55472;50.060;21.960;2024-03-06T03:23:41;5.40;99.90
68485;DHT22;55472;50.060;21.960;2024-03-06T03:26:08;5.40;99.90
68485;DHT22;55472;50.060;21.960;2024-03-06T03:28:39;5.40;99.90
68485;DHT22;55472;50.060;21.960;2024-03-06T03:31:07;5.40;99.90
68485;DHT22;55472;50.060;21.960;2024-03-06T03:33:41;5.30;99.90
68485;DHT22;55472;50.060;21.960;2024-03-06T03:36:08;5.30;99.90
68485;DHT22;55472;50.060;21.960;2024-03-06T03:38:38;5.30;99.90
68485;DHT22;55472;50.060;21.960;2024-03-06T03:41:10;5.30;99.90
68485;DHT22;55472;50.060;21.960;2024-03-06T03:43:42;5.30;99.90
68485;DHT22;55472;50.060;21.960;2024-03-06T03:46:08;5.40;99.90
68485;DHT22;55472;50.060;21.960;2024-03-06T03:48:35;5.40;99.90
68485;DHT22;55472;50.060;21.960;2024-03-06T03:51:03;5.30;99.90
68485;DHT22;55472;50.060;21.960;2024-03-06T03:53:36;5.30;99.90
68485;DHT22;55472;50.060;21.960;2024-03-06T03:56:02;5.30;99.90
68485;DHT22;55472;50.060;21.960;2024-03-06T03:58:29;5.30;99.90
68485;DHT22;55472;50.060;21.960;2024-03-06T04:00:55;5.30;99.90
68485;DHT22;55472;50.060;21.960;2024-03-06T04:03:22;5.30;99.90
68485;DHT22;55472;50.060;21.960;2024-03-06T04:05:48;5.30;99.90
68485;DHT22;55472;50.060;21.960;2024-03-06T04:08:14;5.30;99.90
68485;DHT22;55472;50.060;21.960;2024-03-06T04:10:44;5.30;99.90
68485;DHT22;55472;50.060;21.960;2024-03-06T04:13:14;5.30;99.90
68485;DHT22;55472;50.060;21.960;2024-03-06T04:15:41;5.30;99.90
68485;DHT22;55472;50.060;21.960;2024-03-06T04:18:10;5.30;99.90
68485;DHT22;55472;50.060;21.960;2024-03-06T04:20:36;5.20;99.90
68485;DHT22;55472;50.060;21.960;2024-03-06T04:23:02;5.20;99.90
68485;DHT22;55472;50.060;21.960;2024-03-06T04:25:28;5.20;99.90
68485;DHT22;55472;50.060;21.960;2024-03-06T04:27:55;5.20;99.90
68485;DHT22;55472;50.060;21.960;2024-03-06T04:30:21;5.20;99.90
68485;DHT22;55472;50.060;21.960;2024-03-06T04:32:47;5.20;99.90
68485;DHT22;55472;50.060;21.960;2024-03-06T04:35:14;5.20;99.90
68485;DHT22;55472;50.060;21.960;2024-03-06T04:37:41;5.20;99.90
68485;DHT22;55472;50.060;21.960;2024-03-06T04:40:07;5.20;99.90
68485;DHT22;55472;50.060;21.960;2024-03-06T04:42:35;5.20;99.90
68485;DHT22;55472;50.060;21.960;2024-03-06T04:45:12;5.20;99.90
68485;DHT22;55472;50.060;21.960;2024-03-06T04:47:41;5.20;99.90
68485;DHT22;55472;50.060;21.960;2024-03-06T04:50:11;5.20;99.90
68485;DHT22;55472;50.060;21.960;2024-03-06T04:52:40;5.20;99.90
68485;DHT22;55472;50.060;21.960;2024-03-06T04:55:08;5.20;99.90
68485;DHT22;55472;50.060;21.960;2024-03-06T04:57:39;5.20;99.90
68485;DHT22;55472;50.060;21.960;2024-03-06T05:00:06;5.20;99.90
68485;DHT22;55472;50.060;21.960;2024-03-06T05:02:34;5.20;99.90
68485;DHT22;55472;50.060;21.960;2024-03-06T05:05:03;5.20;99.90
68485;DHT22;55472;50.060;21.960;2024-03-06T05:07:32;5.10;99.90
68485;DHT22;55472;50.060;21.960;2024-03-06T05:09:59;5.10;99.90
68485;DHT22;55472;50.060;21.960;2024-03-06T05:12:26;5.10;99.90
68485;DHT22;55472;50.060;21.960;2024-03-06T05:14:54;5.10;99.90
68485;DHT22;55472;50.060;21.960;2024-03-06T05:17:21;5.10;99.90
68485;DHT22;55472;50.060;21.960;2024-03-06T05:19:48;5.10;99.90
68485;DHT22;55472;50.060;21.960;2024-03-06T05:22:15;5.10;99.90
68485;DHT22;55472;50.060;21.960;2024-03-06T05:24:45;5.10;99.90
68485;DHT22;55472;50.060;21.960;2024-03-06T05:27:11;5.10;99.90
68485;DHT22;55472;50.060;21.960;2024-03-06T05:29:42;5.10;99.90
68485;DHT22;55472;50.060;21.960;2024-03-06T05:32:09;5.10;99.90
68485;DHT22;55472;50.060;21.960;2024-03-06T05:34:35;5.10;99.90
68485;DHT22;55472;50.060;21.960;2024-03-06T05:37:02;5.10;99.90
68485;DHT22;55472;50.060;21.960;2024-03-06T05:39:30;5.10;99.90
68485;DHT22;55472;50.060;21.960;2024-03-06T05:42:04;5.10;99.90
68485;DHT22;55472;50.060;21.960;2024-03-06T05:44:31;5.10;99.90
68485;DHT22;55472;50.060;21.960;2024-03-06T05:46:58;5.10;99.90
68485;DHT22;55472;50.060;21.960;2024-03-06T05:49:27;5.10;99.90
68485;DHT22;55472;50.060;21.960;2024-03-06T05:51:54;5.10;99.90
68485;DHT22;55472;50.060;21.960;2024-03-06T05:54:20;5.10;99.90
68485;DHT22;55472;50.060;21.960;2024-03-06T05:56:51;5.10;99.90
68485;DHT22;55472;50.060;21.960;2024-03-06T05:59:18;5.00;99.90
68485;DHT22;55472;50.060;21.960;2024-03-06T06:01:44;5.00;99.90
68485;DHT22;55472;50.060;21.960;2024-03-06T06:04:11;5.00;99.90
68485;DHT22;55472;50.060;21.960;2024-03-06T06:06:39;5.00;99.90
68485;DHT22;55472;50.060;21.960;2024-03-06T06:09:06;5.00;99.90
68485;DHT22;55472;50.060;21.960;2024-03-06T06:11:33;5.00;99.90
68485;DHT22;55472;50.060;21.960;2024-03-06T06:13:59;4.90;99.90
68485;DHT22;55472;50.060;21.960;2024-03-06T06:16:26;4.90;99.90
68485;DHT22;55472;50.060;21.960;2024-03-06T06:18:52;4.90;99.90
68485;DHT22;55472;50.060;21.960;2024-03-06T06:21:18;4.90;99.90
68485;DHT22;55472;50.060;21.960;2024-03-06T06:23:44;4.90;99.90
68485;DHT22;55472;50.060;21.960;2024-03-06T06:26:12;4.90;99.90
68485;DHT22;55472;50.060;21.960;2024-03-06T06:28:41;4.90;99.90
68485;DHT22;55472;50.060;21.960;2024-03-06T06:31:08;4.90;99.90
68485;DHT22;55472;50.060;21.960;2024-03-06T06:33:34;4.90;99.90
68485;DHT22;55472;50.060;21.960;2024-03-06T06:36:00;4.90;99.90
68485;DHT22;55472;50.060;21.960;2024-03-06T06:38:26;4.90;99.90
68485;DHT22;55472;50.060;21.960;2024-03-06T06:40:52;4.90;99.90
68485;DHT22;55472;50.060;21.960;2024-03-06T06:43:19;4.80;99.90
68485;DHT22;55472;50.060;21.960;2024-03-06T06:45:45;4.80;99.90
68485;DHT22;55472;50.060;21.960;2024-03-06T06:48:11;4.80;99.90
68485;DHT22;55472;50.060;21.960;2024-03-06T06:50:37;4.80;99.90
68485;DHT22;55472;50.060;21.960;2024-03-06T06:53:04;4.80;99.90
68485;DHT22;55472;50.060;21.960;2024-03-06T06:55:31;4.70;99.90
68485;DHT22;55472;50.060;21.960;2024-03-06T06:57:56;4.70;99.90
68485;DHT22;55472;50.060;21.960;2024-03-06T07:00:24;4.70;99.90
68485;DHT22;55472;50.060;21.960;2024-03-06T07:02:50;4.70;99.90
68485;DHT22;55472;50.060;21.960;2024-03-06T07:05:17;4.70;99.90
68485;DHT22;55472;50.060;21.960;2024-03-06T07:07:43;4.70;99.90
68485;DHT22;55472;50.060;21.960;2024-03-06T07:10:10;4.70;99.90
68485;DHT22;55472;50.060;21.960;2024-03-06T07:12:36;4.70;99.90
68485;DHT22;55472;50.060;21.960;2024-03-06T07:15:03;4.60;99.90
68485;DHT22;55472;50.060;21.960;2024-03-06T07:17:29;4.60;99.90
68485;DHT22;55472;50.060;21.960;2024-03-06T07:19:55;4.60;99.90
68485;DHT22;55472;50.060;21.960;2024-03-06T07:22:22;4.60;99.90
68485;DHT22;55472;50.060;21.960;2024-03-06T07:24:49;4.60;99.90
68485;DHT22;55472;50.060;21.960;2024-03-06T07:27:15;4.60;99.90
68485;DHT22;55472;50.060;21.960;2024-03-06T07:29:41;4.60;99.90
68485;DHT22;55472;50.060;21.960;2024-03-06T07:32:07;4.60;99.90
68485;DHT22;55472;50.060;21.960;2024-03-06T07:34:34;4.60;99.90
68485;DHT22;55472;50.060;21.960;2024-03-06T07:37:00;4.60;99.90
68485;DHT22;55472;50.060;21.960;2024-03-06T07:39:26;4.60;99.90
68485;DHT22;55472;50.060;21.960;2024-03-06T07:41:52;4.60;99.90
68485;DHT22;55472;50.060;21.960;2024-03-06T07:44:20;4.60;99.90
68485;DHT22;55472;50.060;21.960;2024-03-06T07:46:46;4.60;99.90
68485;DHT22;55472;50.060;21.960;2024-03-06T07:49:12;4.60;99.90
68485;DHT22;55472;50.060;21.960;2024-03-06T07:51:39;4.50;99.90
68485;DHT22;55472;50.060;21.960;2024-03-06T07:54:06;4.50;99.90
68485;DHT22;55472;50.060;21.960;2024-03-06T07:56:33;4.50;99.90
68485;DHT22;55472;50.060;21.960;2024-03-06T07:59:00;4.50;99.90
68485;DHT22;55472;50.060;21.960;2024-03-06T08:01:26;4.50;99.90
68485;DHT22;55472;50.060;21.960;2024-03-06T08:03:54;4.50;99.90
68485;DHT22;55472;50.060;21.960;2024-03-06T08:06:21;4.40;99.90
68485;DHT22;55472;50.060;21.960;2024-03-06T08:08:47;4.40;99.90
68485;DHT22;55472;50.060;21.960;2024-03-06T08:11:14;4.40;99.90
68485;DHT22;55472;50.060;21.960;2024-03-06T08:13:40;4.40;99.90
68485;DHT22;55472;50.060;21.960;2024-03-06T08:16:08;4.40;99.90
68485;DHT22;55472;50.060;21.960;2024-03-06T08:18:34;4.40;99.90
68485;DHT22;55472;50.060;21.960;2024-03-06T08:21:02;4.40;99.90
68485;DHT22;55472;50.060;21.960;2024-03-06T08:23:31;4.40;99.90
68485;DHT22;55472;50.060;21.960;2024-03-06T08:25:57;4.50;99.90
68485;DHT22;55472;50.060;21.960;2024-03-06T08:28:25;4.50;99.90
68485;DHT22;55472;50.060;21.960;2024-03-06T08:30:52;4.50;99.90
68485;DHT22;55472;50.060;21.960;2024-03-06T08:33:18;4.50;99.90
68485;DHT22;55472;50.060;21.960;2024-03-06T08:35:46;4.50;99.90
68485;DHT22;55472;50.060;21.960;2024-03-06T08:38:12;4.50;99.90
68485;DHT22;55472;50.060;21.960;2024-03-06T08:40:38;4.50;99.90
68485;DHT22;55472;50.060;21.960;2024-03-06T08:43:04;4.50;99.90
68485;DHT22;55472;50.060;21.960;2024-03-06T08:45:31;4.50;99.90
68485;DHT22;55472;50.060;21.960;2024-03-06T08:47:57;4.50;99.90
68485;DHT22;55472;50.060;21.960;2024-03-06T08:50:23;4.50;99.90
68485;DHT22;55472;50.060;21.960;2024-03-06T08:52:51;4.60;99.90
68485;DHT22;55472;50.060;21.960;2024-03-06T08:55:17;4.50;99.90
68485;DHT22;55472;50.060;21.960;2024-03-06T08:57:43;4.50;99.90
68485;DHT22;55472;50.060;21.960;2024-03-06T09:00:09;4.50;99.90
68485;DHT22;55472;50.060;21.960;2024-03-06T09:02:37;4.50;99.90
68485;DHT22;55472;50.060;21.960;2024-03-06T09:05:07;4.50;99.90
68485;DHT22;55472;50.060;21.960;2024-03-06T09:07:36;4.50;99.90
68485;DHT22;55472;50.060;21.960;2024-03-06T09:10:05;4.50;99.90
68485;DHT22;55472;50.060;21.960;2024-03-06T09:12:34;4.50;99.90
68485;DHT22;55472;50.060;21.960;2024-03-06T09:15:01;4.50;99.90
68485;DHT22;55472;50.060;21.960;2024-03-06T09:17:28;4.50;99.90
68485;DHT22;55472;50.060;21.960;2024-03-06T09:19:54;4.60;99.90
68485;DHT22;55472;50.060;21.960;2024-03-06T09:22:21;4.60;99.90
68485;DHT22;55472;50.060;21.960;2024-03-06T09:24:47;4.60;99.90
68485;DHT22;55472;50.060;21.960;2024-03-06T09:27:14;4.60;99.90
68485;DHT22;55472;50.060;21.960;2024-03-06T09:29:42;4.60;99.90
68485;DHT22;55472;50.060;21.960;2024-03-06T09:32:11;4.60;99.90
68485;DHT22;55472;50.060;21.960;2024-03-06T09:34:41;4.60;99.90
68485;DHT22;55472;50.060;21.960;2024-03-06T09:37:08;4.60;99.90
68485;DHT22;55472;50.060;21.960;2024-03-06T09:39:35;4.60;99.90
68485;DHT22;55472;50.060;21.960;2024-03-06T09:42:01;4.60;99.90
68485;DHT22;55472;50.060;21.960;2024-03-06T09:44:28;4.70;99.90
68485;DHT22;55472;50.060;21.960;2024-03-06T09:46:54;4.70;99.90
68485;DHT22;55472;50.060;21.960;2024-03-06T09:49:23;4.70;99.90
68485;DHT22;55472;50.060;21.960;2024-03-06T09:51:50;4.70;99.90
68485;DHT22;55472;50.060;21.960;2024-03-06T09:54:16;4.70;99.90
68485;DHT22;55472;50.060;21.960;2024-03-06T09:56:43;4.70;99.90
68485;DHT22;55472;50.060;21.960;2024-03-06T09:59:11;4.70;99.90
68485;DHT22;55472;50.060;21.960;2024-03-06T10:01:53;4.70;99.90
68485;DHT22;55472;50.060;21.960;2024-03-06T10:04:26;4.70;99.90
68485;DHT22;55472;50.060;21.960;2024-03-06T10:06:55;4.70;99.90
68485;DHT22;55472;50.060;21.960;2024-03-06T10:09:23;4.80;99.90
68485;DHT22;55472;50.060;21.960;2024-03-06T10:11:50;4.80;99.90
68485;DHT22;55472;50.060;21.960;2024-03-06T10:14:19;4.80;99.90
68485;DHT22;55472;50.060;21.960;2024-03-06T10:17:01;4.90;99.90
68485;DHT22;55472;50.060;21.960;2024-03-06T10:19:29;4.90;99.90
68485;DHT22;55472;50.060;21.960;2024-03-06T10:21:56;4.90;99.90
68485;DHT22;55472;50.060;21.960;2024-03-06T10:24:31;5.00;99.90
68485;DHT22;55472;50.060;21.960;2024-03-06T10:26:58;5.00;99.90
68485;DHT22;55472;50.060;21.960;2024-03-06T10:29:28;5.00;99.90
68485;DHT22;55472;50.060;21.960;2024-03-06T10:31:57;5.00;99.90
68485;DHT22;55472;50.060;21.960;2024-03-06T10:34:25;5.00;99.90
68485;DHT22;55472;50.060;21.960;2024-03-06T10:36:58;5.00;99.90
68485;DHT22;55472;50.060;21.960;2024-03-06T10:39:25;5.10;99.90
68485;DHT22;55472;50.060;21.960;2024-03-06T10:41:53;5.10;99.90
68485;DHT22;55472;50.060;21.960;2024-03-06T10:44:24;5.10;99.90
68485;DHT22;55472;50.060;21.960;2024-03-06T10:46:56;5.10;99.90
68485;DHT22;55472;50.060;21.960;2024-03-06T10:49:25;5.10;99.90
68485;DHT22;55472;50.060;21.960;2024-03-06T10:52:01;5.10;99.90
68485;DHT22;55472;50.060;21.960;2024-03-06T10:54:32;5.20;99.90
68485;DHT22;55472;50.060;21.960;2024-03-06T10:57:01;5.20;99.90
68485;DHT22;55472;50.060;21.960;2024-03-06T10:59:29;5.20;99.90
68485;DHT22;55472;50.060;21.960;2024-03-06T11:01:59;5.30;99.90
68485;DHT22;55472;50.060;21.960;2024-03-06T11:04:30;5.30;99.90
68485;DHT22;55472;50.060;21.960;2024-03-06T11:07:02;5.30;99.90
68485;DHT22;55472;50.060;21.960;2024-03-06T11:09:36;5.30;99.90
68485;DHT22;55472;50.060;21.960;2024-03-06T11:12:07;5.40;99.90
68485;DHT22;55472;50.060;21.960;2024-03-06T11:14:36;5.40;99.90
68485;DHT22;55472;50.060;21.960;2024-03-06T11:17:09;5.40;99.90
68485;DHT22;55472;50.060;21.960;2024-03-06T11:28:20;5.50;99.90
68485;DHT22;55472;50.060;21.960;2024-03-06T11:31:01;5.50;99.90
68485;DHT22;55472;50.060;21.960;2024-03-06T11:33:40;5.50;99.90
68485;DHT22;55472;50.060;21.960;2024-03-06T11:36:23;5.50;99.90
68485;DHT22;55472;50.060;21.960;2024-03-06T11:44:20;5.50;99.90
68485;DHT22;55472;50.060;21.960;2024-03-06T11:46:58;5.50;99.90
68485;DHT22;55472;50.060;21.960;2024-03-06T11:49:32;5.50;99.90
68485;DHT22;55472;50.060;21.960;2024-03-06T11:54:35;5.60;99.90
68485;DHT22;55472;50.060;21.960;2024-03-06T11:57:03;5.60;99.90
68485;DHT22;55472;50.060;21.960;2024-03-06T11:59:31;5.60;99.90
68485;DHT22;55472;50.060;21.960;2024-03-06T12:02:03;5.60;99.90
68485;DHT22;55472;50.060;21.960;2024-03-06T12:04:31;5.60;99.90
68485;DHT22;55472;50.060;21.960;2024-03-06T12:07:00;5.60;99.90
68485;DHT22;55472;50.060;21.960;2024-03-06T12:09:37;5.60;99.90
68485;DHT22;55472;50.060;21.960;2024-03-06T12:12:04;5.70;99.90
68485;DHT22;55472;50.060;21.960;2024-03-06T12:14:35;5.80;99.90
68485;DHT22;55472;50.060;21.960;2024-03-06T12:17:02;5.80;99.90
68485;DHT22;55472;50.060;21.960;2024-03-06T12:19:32;5.90;99.90
68485;DHT22;55472;50.060;21.960;2024-03-06T12:22:00;5.90;99.90
68485;DHT22;55472;50.060;21.960;2024-03-06T12:24:26;5.90;99.90
68485;DHT22;55472;50.060;21.960;2024-03-06T12:27:04;6.00;99.90
68485;DHT22;55472;50.060;21.960;2024-03-06T12:29:32;6.00;99.90
68485;DHT22;55472;50.060;21.960;2024-03-06T12:32:04;6.00;99.90
68485;DHT22;55472;50.060;21.960;2024-03-06T12:34:30;6.10;99.90
68485;DHT22;55472;50.060;21.960;2024-03-06T12:37:07;6.00;99.90
68485;DHT22;55472;50.060;21.960;2024-03-06T12:39:34;6.10;99.90
68485;DHT22;55472;50.060;21.960;2024-03-06T12:42:00;6.10;99.90
68485;DHT22;55472;50.060;21.960;2024-03-06T12:44:26;6.30;99.90
68485;DHT22;55472;50.060;21.960;2024-03-06T12:46:52;6.40;99.90
68485;DHT22;55472;50.060;21.960;2024-03-06T12:49:18;6.50;99.90
68485;DHT22;55472;50.060;21.960;2024-03-06T12:51:44;6.50;99.90
68485;DHT22;55472;50.060;21.960;2024-03-06T12:54:10;6.50;99.90
68485;DHT22;55472;50.060;21.960;2024-03-06T12:56:36;6.50;99.90
68485;DHT22;55472;50.060;21.960;2024-03-06T12:59:02;6.40;99.90
68485;DHT22;55472;50.060;21.960;2024-03-06T13:01:29;6.40;99.90
68485;DHT22;55472;50.060;21.960;2024-03-06T13:03:55;6.40;99.90
68485;DHT22;55472;50.060;21.960;2024-03-06T13:06:22;6.40;99.90
68485;DHT22;55472;50.060;21.960;2024-03-06T13:08:48;6.40;99.90
68485;DHT22;55472;50.060;21.960;2024-03-06T13:11:14;6.30;99.90
68485;DHT22;55472;50.060;21.960;2024-03-06T13:13:40;6.40;99.90
68485;DHT22;55472;50.060;21.960;2024-03-06T13:16:06;6.40;99.90
68485;DHT22;55472;50.060;21.960;2024-03-06T13:18:32;6.40;99.90
68485;DHT22;55472;50.060;21.960;2024-03-06T13:20:58;6.50;99.90
68485;DHT22;55472;50.060;21.960;2024-03-06T13:23:26;6.40;99.90
68485;DHT22;55472;50.060;21.960;2024-03-06T13:25:52;6.50;99.90
68485;DHT22;55472;50.060;21.960;2024-03-06T13:28:18;6.50;99.90
68485;DHT22;55472;50.060;21.960;2024-03-06T13:30:46;6.40;99.90
68485;DHT22;55472;50.060;21.960;2024-03-06T13:33:12;6.40;99.90
68485;DHT22;55472;50.060;21.960;2024-03-06T13:35:38;6.40;99.90
68485;DHT22;55472;50.060;21.960;2024-03-06T13:38:05;6.40;99.90
68485;DHT22;55472;50.060;21.960;2024-03-06T13:40:31;6.40;99.90
68485;DHT22;55472;50.060;21.960;2024-03-06T13:42:57;6.40;99.90
68485;DHT22;55472;50.060;21.960;2024-03-06T13:45:23;6.40;99.90
68485;DHT22;55472;50.060;21.960;2024-03-06T13:47:49;6.30;99.90
68485;DHT22;55472;50.060;21.960;2024-03-06T13:50:16;6.30;99.90
68485;DHT22;55472;50.060;21.960;2024-03-06T13:52:44;6.30;99.90
68485;DHT22;55472;50.060;21.960;2024-03-06T13:55:10;6.30;99.90
68485;DHT22;55472;50.060;21.960;2024-03-06T13:57:37;6.20;99.90
68485;DHT22;55472;50.060;21.960;2024-03-06T14:00:06;6.20;99.90
68485;DHT22;55472;50.060;21.960;2024-03-06T14:02:38;6.20;99.90
68485;DHT22;55472;50.060;21.960;2024-03-06T14:05:06;6.20;99.90
68485;DHT22;55472;50.060;21.960;2024-03-06T14:07:34;6.10;99.90
68485;DHT22;55472;50.060;21.960;2024-03-06T14:10:00;6.10;99.90
68485;DHT22;55472;50.060;21.960;2024-03-06T14:12:27;6.10;99.90
68485;DHT22;55472;50.060;21.960;2024-03-06T14:14:53;6.00;99.90
68485;DHT22;55472;50.060;21.960;2024-03-06T14:17:19;6.00;99.90
68485;DHT22;55472;50.060;21.960;2024-03-06T14:19:45;5.90;99.90
68485;DHT22;55472;50.060;21.960;2024-03-06T14:22:11;5.80;99.90
68485;DHT22;55472;50.060;21.960;2024-03-06T14:24:37;5.80;99.90
68485;DHT22;55472;50.060;21.960;2024-03-06T14:27:03;5.70;99.90
68485;DHT22;55472;50.060;21.960;2024-03-06T14:29:31;5.70;99.90
68485;DHT22;55472;50.060;21.960;2024-03-06T14:31:57;5.60;99.90
68485;DHT22;55472;50.060;21.960;2024-03-06T14:34:24;5.60;99.90
68485;DHT22;55472;50.060;21.960;2024-03-06T14:36:51;5.60;99.90
68485;DHT22;55472;50.060;21.960;2024-03-06T14:39:20;5.60;99.90
68485;DHT22;55472;50.060;21.960;2024-03-06T14:41:51;5.50;99.90
68485;DHT22;55472;50.060;21.960;2024-03-06T14:44:18;5.50;99.90
68485;DHT22;55472;50.060;21.960;2024-03-06T14:46:44;5.40;99.90
68485;DHT22;55472;50.060;21.960;2024-03-06T14:49:12;5.40;99.90
68485;DHT22;55472;50.060;21.960;2024-03-06T14:51:38;5.40;99.90
68485;DHT22;55472;50.060;21.960;2024-03-06T14:54:05;5.30;99.90
68485;DHT22;55472;50.060;21.960;2024-03-06T14:56:31;5.30;99.90
68485;DHT22;55472;50.060;21.960;2024-03-06T14:58:58;5.20;99.90
68485;DHT22;55472;50.060;21.960;2024-03-06T15:01:24;5.20;99.90
68485;DHT22;55472;50.060;21.960;2024-03-06T15:03:54;5.20;99.90
68485;DHT22;55472;50.060;21.960;2024-03-06T15:06:20;5.20;99.90
68485;DHT22;55472;50.060;21.960;2024-03-06T15:08:46;5.10;99.90
68485;DHT22;55472;50.060;21.960;2024-03-06T15:11:12;5.10;99.90
68485;DHT22;55472;50.060;21.960;2024-03-06T15:13:39;5.10;99.90
68485;DHT22;55472;50.060;21.960;2024-03-06T15:16:05;5.00;99.90
68485;DHT22;55472;50.060;21.960;2024-03-06T15:18:34;5.00;99.90
68485;DHT22;55472;50.060;21.960;2024-03-06T15:21:00;5.00;99.90
68485;DHT22;55472;50.060;21.960;2024-03-06T15:23:26;4.90;99.90
68485;DHT22;55472;50.060;21.960;2024-03-06T15:25:52;4.90;99.90
68485;DHT22;55472;50.060;21.960;2024-03-06T15:28:20;4.90;99.90
68485;DHT22;55472;50.060;21.960;2024-03-06T15:30:47;4.90;99.90
68485;DHT22;55472;50.060;21.960;2024-03-06T15:33:14;4.80;99.90
68485;DHT22;55472;50.060;21.960;2024-03-06T15:35:40;4.80;99.90
68485;DHT22;55472;50.060;21.960;2024-03-06T15:38:06;4.80;99.90
68485;DHT22;55472;50.060;21.960;2024-03-06T15:40:32;4.70;99.90
68485;DHT22;55472;50.060;21.960;2024-03-06T15:42:58;4.60;99.90
68485;DHT22;55472;50.060;21.960;2024-03-06T15:45:27;4.60;99.90
68485;DHT22;55472;50.060;21.960;2024-03-06T15:47:53;4.50;99.90
68485;DHT22;55472;50.060;21.960;2024-03-06T15:50:19;4.50;99.90